PADK/ADK METAR and TAF weather

Enter ICAO airport designator
Station Type Date Time Source
PADK METAR 2022/10/01 08:56 UTC NOAA

PADK 010856Z AUTO 24025G35KT OVC017 08/06 A2966 RMK AO2 PK WND 25035/0853 SLP044 T00830061 50007 PWINO $


Station Type Date Time Source
PADK Decoded METAR 2022/10/01 08:56 UTC NOAA

Adak Island, Adak Airport, AK, United States (PADK) 51-52-40N 176-38-45W 4M
Oct 01, 2022 - 04:56 AM EDT / 2022.10.01 0856 UTC
Wind: from the WSW (240 degrees) at 29 MPH (25 KT) gusting to 40 MPH (35 KT):0
Sky conditions: overcast
Temperature: 46.9 F (8.3 C)
Dew Point: 43.0 F (6.1 C)
Relative Humidity: 86%
Pressure (altimeter): 29.66 in. Hg (1004 hPa)
Pressure tendency: 0.02 inches (0.7 hPa) higher than three hours ago
ob: PADK 010856Z AUTO 24025G35KT OVC017 08/06 A2966 RMK AO2 PK WND 25035/0853 SLP044 T00830061 50007 PWINO
cycle: 9

Station Type Date Time Source
PADK TAF 2007/04/07 12:54 UTC NOAA

TAF PADK 070404 33010G15KT 9999 FEW025 BKN030 OVC050 QNH2900INS T03/00Z TM01/18Z COR 1205 LAST NO
AMDS AFT 0712;

Example: see airport list